sensor_id;sensor_type;location;lat;lon;timestamp;P1;durP1;ratioP1;P2;durP2;ratioP2
3407;SDS011;1717;50.240;8.406;2024-03-29T00:00:35;3.77;;;1.70;;
3407;SDS011;1717;50.240;8.406;2024-03-29T00:03:02;2.00;;;0.90;;
3407;SDS011;1717;50.240;8.406;2024-03-29T00:05:28;4.00;;;1.90;;
3407;SDS011;1717;50.240;8.406;2024-03-29T00:07:54;2.10;;;1.50;;
3407;SDS011;1717;50.240;8.406;2024-03-29T00:10:20;2.57;;;1.40;;
3407;SDS011;1717;50.240;8.406;2024-03-29T00:12:46;4.20;;;1.30;;
3407;SDS011;1717;50.240;8.406;2024-03-29T00:15:12;2.57;;;1.17;;
3407;SDS011;1717;50.240;8.406;2024-03-29T00:17:39;1.77;;;1.10;;
3407;SDS011;1717;50.240;8.406;2024-03-29T00:20:05;1.00;;;0.90;;
3407;SDS011;1717;50.240;8.406;2024-03-29T00:22:32;3.07;;;1.10;;
3407;SDS011;1717;50.240;8.406;2024-03-29T00:24:58;2.47;;;0.83;;
3407;SDS011;1717;50.240;8.406;2024-03-29T00:27:24;2.60;;;1.53;;
3407;SDS011;1717;50.240;8.406;2024-03-29T00:29:49;2.07;;;1.40;;
3407;SDS011;1717;50.240;8.406;2024-03-29T00:32:16;3.77;;;2.70;;
3407;SDS011;1717;50.240;8.406;2024-03-29T00:34:43;10.67;;;1.40;;
3407;SDS011;1717;50.240;8.406;2024-03-29T00:37:09;4.03;;;1.27;;
3407;SDS011;1717;50.240;8.406;2024-03-29T00:39:35;2.73;;;1.40;;
3407;SDS011;1717;50.240;8.406;2024-03-29T00:42:01;6.90;;;1.40;;
3407;SDS011;1717;50.240;8.406;2024-03-29T00:44:27;4.63;;;1.00;;
3407;SDS011;1717;50.240;8.406;2024-03-29T00:46:53;5.33;;;1.57;;
3407;SDS011;1717;50.240;8.406;2024-03-29T00:49:19;3.27;;;1.13;;
3407;SDS011;1717;50.240;8.406;2024-03-29T00:51:46;2.97;;;1.10;;
3407;SDS011;1717;50.240;8.406;2024-03-29T00:54:12;3.47;;;1.43;;
3407;SDS011;1717;50.240;8.406;2024-03-29T00:56:38;1.30;;;1.20;;
3407;SDS011;1717;50.240;8.406;2024-03-29T00:59:04;3.37;;;1.47;;
3407;SDS011;1717;50.240;8.406;2024-03-29T01:01:29;1.90;;;1.17;;
3407;SDS011;1717;50.240;8.406;2024-03-29T01:03:55;4.80;;;1.47;;
3407;SDS011;1717;50.240;8.406;2024-03-29T01:06:21;4.17;;;1.37;;
3407;SDS011;1717;50.240;8.406;2024-03-29T01:08:48;5.30;;;1.90;;
3407;SDS011;1717;50.240;8.406;2024-03-29T01:11:14;1.97;;;1.20;;
3407;SDS011;1717;50.240;8.406;2024-03-29T01:13:40;1.90;;;1.20;;
3407;SDS011;1717;50.240;8.406;2024-03-29T01:16:06;3.93;;;1.20;;
3407;SDS011;1717;50.240;8.406;2024-03-29T01:18:32;1.80;;;1.03;;
3407;SDS011;1717;50.240;8.406;2024-03-29T01:20:58;2.50;;;1.10;;
3407;SDS011;1717;50.240;8.406;2024-03-29T01:23:24;6.87;;;1.10;;
3407;SDS011;1717;50.240;8.406;2024-03-29T01:25:52;1.80;;;0.90;;
3407;SDS011;1717;50.240;8.406;2024-03-29T01:28:18;2.50;;;0.90;;
3407;SDS011;1717;50.240;8.406;2024-03-29T01:30:44;1.77;;;0.90;;
3407;SDS011;1717;50.240;8.406;2024-03-29T01:33:17;4.17;;;1.03;;
3407;SDS011;1717;50.240;8.406;2024-03-29T01:35:42;2.47;;;0.90;;
3407;SDS011;1717;50.240;8.406;2024-03-29T01:38:08;1.57;;;0.90;;
3407;SDS011;1717;50.240;8.406;2024-03-29T01:40:34;2.30;;;0.73;;
3407;SDS011;1717;50.240;8.406;2024-03-29T01:43:02;1.80;;;1.27;;
3407;SDS011;1717;50.240;8.406;2024-03-29T01:45:28;2.70;;;1.00;;
3407;SDS011;1717;50.240;8.406;2024-03-29T01:47:55;4.50;;;1.40;;
3407;SDS011;1717;50.240;8.406;2024-03-29T01:50:22;2.30;;;1.00;;
3407;SDS011;1717;50.240;8.406;2024-03-29T01:52:49;1.93;;;1.37;;
3407;SDS011;1717;50.240;8.406;2024-03-29T01:55:17;4.07;;;0.90;;
3407;SDS011;1717;50.240;8.406;2024-03-29T01:57:44;1.53;;;0.90;;
3407;SDS011;1717;50.240;8.406;2024-03-29T02:00:13;2.90;;;1.10;;
3407;SDS011;1717;50.240;8.406;2024-03-29T02:02:40;2.40;;;0.90;;
3407;SDS011;1717;50.240;8.406;2024-03-29T02:05:07;2.13;;;1.10;;
3407;SDS011;1717;50.240;8.406;2024-03-29T02:07:34;2.00;;;1.37;;
3407;SDS011;1717;50.240;8.406;2024-03-29T02:10:02;1.43;;;1.17;;
3407;SDS011;1717;50.240;8.406;2024-03-29T02:12:32;3.07;;;1.20;;
3407;SDS011;1717;50.240;8.406;2024-03-29T02:14:59;3.03;;;0.90;;
3407;SDS011;1717;50.240;8.406;2024-03-29T02:17:28;1.50;;;1.03;;
3407;SDS011;1717;50.240;8.406;2024-03-29T02:19:55;2.20;;;0.83;;
3407;SDS011;1717;50.240;8.406;2024-03-29T02:22:22;1.63;;;0.90;;
3407;SDS011;1717;50.240;8.406;2024-03-29T02:24:52;1.50;;;1.10;;
3407;SDS011;1717;50.240;8.406;2024-03-29T02:27:21;3.30;;;1.07;;
3407;SDS011;1717;50.240;8.406;2024-03-29T02:29:48;2.43;;;1.30;;
3407;SDS011;1717;50.240;8.406;2024-03-29T02:32:14;1.10;;;0.83;;
3407;SDS011;1717;50.240;8.406;2024-03-29T02:34:41;1.10;;;1.00;;
3407;SDS011;1717;50.240;8.406;2024-03-29T02:37:08;1.97;;;1.07;;
3407;SDS011;1717;50.240;8.406;2024-03-29T02:39:35;2.00;;;0.90;;
3407;SDS011;1717;50.240;8.406;2024-03-29T02:42:03;1.23;;;1.10;;
3407;SDS011;1717;50.240;8.406;2024-03-29T02:44:31;1.10;;;1.00;;
3407;SDS011;1717;50.240;8.406;2024-03-29T02:46:58;1.67;;;1.03;;
3407;SDS011;1717;50.240;8.406;2024-03-29T02:49:25;5.93;;;1.30;;
3407;SDS011;1717;50.240;8.406;2024-03-29T02:51:51;5.43;;;0.80;;
3407;SDS011;1717;50.240;8.406;2024-03-29T02:54:18;2.60;;;1.00;;
3407;SDS011;1717;50.240;8.406;2024-03-29T02:56:43;2.43;;;1.60;;
3407;SDS011;1717;50.240;8.406;2024-03-29T02:59:12;2.60;;;0.90;;
3407;SDS011;1717;50.240;8.406;2024-03-29T03:01:39;2.53;;;1.10;;
3407;SDS011;1717;50.240;8.406;2024-03-29T03:04:06;3.93;;;0.80;;
3407;SDS011;1717;50.240;8.406;2024-03-29T03:06:32;3.30;;;1.07;;
3407;SDS011;1717;50.240;8.406;2024-03-29T03:08:59;2.00;;;1.30;;
3407;SDS011;1717;50.240;8.406;2024-03-29T03:11:43;2.90;;;0.87;;
3407;SDS011;1717;50.240;8.406;2024-03-29T03:14:11;3.33;;;1.60;;
3407;SDS011;1717;50.240;8.406;2024-03-29T03:16:38;3.70;;;1.10;;
3407;SDS011;1717;50.240;8.406;2024-03-29T03:19:04;3.53;;;1.10;;
3407;SDS011;1717;50.240;8.406;2024-03-29T03:21:31;3.10;;;1.17;;
3407;SDS011;1717;50.240;8.406;2024-03-29T03:23:57;1.10;;;0.70;;
3407;SDS011;1717;50.240;8.406;2024-03-29T03:26:23;2.80;;;1.10;;
3407;SDS011;1717;50.240;8.406;2024-03-29T03:28:49;1.90;;;1.27;;
3407;SDS011;1717;50.240;8.406;2024-03-29T03:31:18;2.87;;;0.90;;
3407;SDS011;1717;50.240;8.406;2024-03-29T03:33:44;4.40;;;1.40;;
3407;SDS011;1717;50.240;8.406;2024-03-29T03:36:11;1.63;;;1.17;;
3407;SDS011;1717;50.240;8.406;2024-03-29T03:38:37;1.33;;;1.23;;
3407;SDS011;1717;50.240;8.406;2024-03-29T03:41:04;5.17;;;1.27;;
3407;SDS011;1717;50.240;8.406;2024-03-29T03:43:30;4.30;;;1.53;;
3407;SDS011;1717;50.240;8.406;2024-03-29T03:45:59;1.10;;;0.87;;
3407;SDS011;1717;50.240;8.406;2024-03-29T03:48:27;1.40;;;0.90;;
3407;SDS011;1717;50.240;8.406;2024-03-29T03:50:55;2.67;;;1.20;;
3407;SDS011;1717;50.240;8.406;2024-03-29T03:53:21;1.10;;;0.70;;
3407;SDS011;1717;50.240;8.406;2024-03-29T03:55:48;1.50;;;1.40;;
3407;SDS011;1717;50.240;8.406;2024-03-29T03:58:13;1.60;;;0.93;;
3407;SDS011;1717;50.240;8.406;2024-03-29T04:00:40;1.27;;;1.17;;
3407;SDS011;1717;50.240;8.406;2024-03-29T04:03:06;1.40;;;1.20;;
3407;SDS011;1717;50.240;8.406;2024-03-29T04:05:36;1.30;;;1.20;;
3407;SDS011;1717;50.240;8.406;2024-03-29T04:08:02;4.50;;;1.50;;
3407;SDS011;1717;50.240;8.406;2024-03-29T04:10:29;2.00;;;0.90;;
3407;SDS011;1717;50.240;8.406;2024-03-29T04:12:55;8.13;;;1.40;;
3407;SDS011;1717;50.240;8.406;2024-03-29T04:15:22;3.80;;;1.10;;
3407;SDS011;1717;50.240;8.406;2024-03-29T04:17:48;2.03;;;1.10;;
3407;SDS011;1717;50.240;8.406;2024-03-29T04:20:15;3.90;;;1.10;;
3407;SDS011;1717;50.240;8.406;2024-03-29T04:22:42;2.50;;;1.20;;
3407;SDS011;1717;50.240;8.406;2024-03-29T04:25:10;1.50;;;0.73;;
3407;SDS011;1717;50.240;8.406;2024-03-29T04:27:36;5.80;;;1.50;;
3407;SDS011;1717;50.240;8.406;2024-03-29T04:30:03;2.60;;;1.10;;
3407;SDS011;1717;50.240;8.406;2024-03-29T04:32:29;2.37;;;1.00;;
3407;SDS011;1717;50.240;8.406;2024-03-29T04:34:56;1.83;;;1.10;;
3407;SDS011;1717;50.240;8.406;2024-03-29T04:37:22;1.33;;;0.90;;
3407;SDS011;1717;50.240;8.406;2024-03-29T04:39:50;0.97;;;0.70;;
3407;SDS011;1717;50.240;8.406;2024-03-29T04:42:17;3.77;;;1.00;;
3407;SDS011;1717;50.240;8.406;2024-03-29T04:44:43;1.47;;;0.80;;
3407;SDS011;1717;50.240;8.406;2024-03-29T04:47:10;2.53;;;0.90;;
3407;SDS011;1717;50.240;8.406;2024-03-29T04:49:37;1.30;;;1.00;;
3407;SDS011;1717;50.240;8.406;2024-03-29T04:52:04;2.33;;;1.33;;
3407;SDS011;1717;50.240;8.406;2024-03-29T04:54:31;1.70;;;1.40;;
3407;SDS011;1717;50.240;8.406;2024-03-29T04:57:00;2.80;;;0.93;;
3407;SDS011;1717;50.240;8.406;2024-03-29T04:59:31;2.47;;;1.30;;
3407;SDS011;1717;50.240;8.406;2024-03-29T05:01:58;1.77;;;0.90;;
3407;SDS011;1717;50.240;8.406;2024-03-29T05:04:25;2.33;;;1.20;;
3407;SDS011;1717;50.240;8.406;2024-03-29T05:06:52;2.27;;;1.27;;
3407;SDS011;1717;50.240;8.406;2024-03-29T05:09:19;2.10;;;0.90;;
3407;SDS011;1717;50.240;8.406;2024-03-29T05:11:47;1.63;;;1.07;;
3407;SDS011;1717;50.240;8.406;2024-03-29T05:14:15;3.03;;;0.83;;
3407;SDS011;1717;50.240;8.406;2024-03-29T05:16:44;2.80;;;1.10;;
3407;SDS011;1717;50.240;8.406;2024-03-29T05:19:11;1.60;;;1.20;;
3407;SDS011;1717;50.240;8.406;2024-03-29T05:21:38;2.37;;;1.70;;
3407;SDS011;1717;50.240;8.406;2024-03-29T05:24:05;1.43;;;1.33;;
3407;SDS011;1717;50.240;8.406;2024-03-29T05:26:32;4.00;;;0.80;;
3407;SDS011;1717;50.240;8.406;2024-03-29T05:28:59;1.67;;;1.20;;
3407;SDS011;1717;50.240;8.406;2024-03-29T05:31:29;4.83;;;1.57;;
3407;SDS011;1717;50.240;8.406;2024-03-29T05:33:56;2.30;;;1.07;;
3407;SDS011;1717;50.240;8.406;2024-03-29T05:36:25;1.20;;;0.93;;
3407;SDS011;1717;50.240;8.406;2024-03-29T05:38:52;2.40;;;1.30;;
3407;SDS011;1717;50.240;8.406;2024-03-29T05:41:19;2.60;;;1.20;;
3407;SDS011;1717;50.240;8.406;2024-03-29T05:43:46;4.20;;;1.07;;
3407;SDS011;1717;50.240;8.406;2024-03-29T05:46:14;1.23;;;1.00;;
3407;SDS011;1717;50.240;8.406;2024-03-29T05:48:43;2.00;;;1.40;;
3407;SDS011;1717;50.240;8.406;2024-03-29T05:51:10;3.57;;;2.03;;
3407;SDS011;1717;50.240;8.406;2024-03-29T05:53:37;1.50;;;1.40;;
3407;SDS011;1717;50.240;8.406;2024-03-29T05:56:04;4.03;;;1.20;;
3407;SDS011;1717;50.240;8.406;2024-03-29T05:58:31;0.97;;;0.93;;
3407;SDS011;1717;50.240;8.406;2024-03-29T06:00:59;1.60;;;1.07;;
3407;SDS011;1717;50.240;8.406;2024-03-29T06:03:25;2.43;;;1.33;;
3407;SDS011;1717;50.240;8.406;2024-03-29T06:05:54;1.30;;;1.20;;
3407;SDS011;1717;50.240;8.406;2024-03-29T06:08:21;2.50;;;1.30;;
3407;SDS011;1717;50.240;8.406;2024-03-29T06:10:50;4.37;;;1.40;;
3407;SDS011;1717;50.240;8.406;2024-03-29T06:13:18;2.43;;;1.20;;
3407;SDS011;1717;50.240;8.406;2024-03-29T06:16:13;6.13;;;1.40;;
3407;SDS011;1717;50.240;8.406;2024-03-29T06:18:58;3.70;;;1.20;;
3407;SDS011;1717;50.240;8.406;2024-03-29T06:21:27;1.47;;;1.13;;
3407;SDS011;1717;50.240;8.406;2024-03-29T06:23:54;3.50;;;1.37;;
3407;SDS011;1717;50.240;8.406;2024-03-29T06:26:20;2.23;;;1.60;;
3407;SDS011;1717;50.240;8.406;2024-03-29T06:28:47;2.10;;;0.90;;
3407;SDS011;1717;50.240;8.406;2024-03-29T06:31:14;1.10;;;0.90;;
3407;SDS011;1717;50.240;8.406;2024-03-29T06:33:41;6.30;;;1.50;;
3407;SDS011;1717;50.240;8.406;2024-03-29T06:36:08;3.57;;;1.53;;
3407;SDS011;1717;50.240;8.406;2024-03-29T06:38:36;1.73;;;1.10;;
3407;SDS011;1717;50.240;8.406;2024-03-29T06:41:03;1.93;;;1.27;;
3407;SDS011;1717;50.240;8.406;2024-03-29T06:43:30;1.70;;;1.60;;
3407;SDS011;1717;50.240;8.406;2024-03-29T06:45:56;1.60;;;1.50;;
3407;SDS011;1717;50.240;8.406;2024-03-29T06:48:24;1.50;;;1.40;;
3407;SDS011;1717;50.240;8.406;2024-03-29T06:50:52;1.90;;;1.40;;
3407;SDS011;1717;50.240;8.406;2024-03-29T06:53:19;1.50;;;0.90;;
3407;SDS011;1717;50.240;8.406;2024-03-29T06:55:47;3.20;;;1.83;;
3407;SDS011;1717;50.240;8.406;2024-03-29T06:58:14;1.90;;;1.40;;
3407;SDS011;1717;50.240;8.406;2024-03-29T07:00:43;1.67;;;1.50;;
3407;SDS011;1717;50.240;8.406;2024-03-29T07:03:11;2.10;;;1.43;;
3407;SDS011;1717;50.240;8.406;2024-03-29T07:05:38;4.20;;;1.27;;
3407;SDS011;1717;50.240;8.406;2024-03-29T07:08:05;3.03;;;1.43;;
3407;SDS011;1717;50.240;8.406;2024-03-29T07:10:32;3.90;;;1.70;;
3407;SDS011;1717;50.240;8.406;2024-03-29T07:13:00;1.10;;;1.10;;
3407;SDS011;1717;50.240;8.406;2024-03-29T07:15:27;2.30;;;1.47;;
3407;SDS011;1717;50.240;8.406;2024-03-29T07:17:54;2.00;;;1.30;;
3407;SDS011;1717;50.240;8.406;2024-03-29T07:20:23;1.83;;;1.47;;
3407;SDS011;1717;50.240;8.406;2024-03-29T07:22:51;2.60;;;1.60;;
3407;SDS011;1717;50.240;8.406;2024-03-29T07:25:18;1.60;;;1.30;;
3407;SDS011;1717;50.240;8.406;2024-03-29T07:27:45;4.20;;;1.60;;
3407;SDS011;1717;50.240;8.406;2024-03-29T07:30:15;3.67;;;2.20;;
3407;SDS011;1717;50.240;8.406;2024-03-29T07:32:42;1.93;;;1.83;;
3407;SDS011;1717;50.240;8.406;2024-03-29T07:35:09;1.53;;;1.43;;
3407;SDS011;1717;50.240;8.406;2024-03-29T07:37:36;1.60;;;1.50;;
3407;SDS011;1717;50.240;8.406;2024-03-29T07:40:05;2.60;;;1.30;;
3407;SDS011;1717;50.240;8.406;2024-03-29T07:42:32;2.47;;;1.37;;
3407;SDS011;1717;50.240;8.406;2024-03-29T07:45:00;1.80;;;1.40;;
3407;SDS011;1717;50.240;8.406;2024-03-29T07:47:29;1.47;;;1.37;;
3407;SDS011;1717;50.240;8.406;2024-03-29T07:49:56;1.80;;;1.30;;
3407;SDS011;1717;50.240;8.406;2024-03-29T07:52:23;4.07;;;1.60;;
3407;SDS011;1717;50.240;8.406;2024-03-29T07:54:50;0.97;;;0.97;;
3407;SDS011;1717;50.240;8.406;2024-03-29T07:57:17;3.40;;;1.30;;
3407;SDS011;1717;50.240;8.406;2024-03-29T07:59:44;2.47;;;2.20;;
3407;SDS011;1717;50.240;8.406;2024-03-29T08:02:10;4.20;;;0.97;;
3407;SDS011;1717;50.240;8.406;2024-03-29T08:04:38;2.00;;;1.10;;
3407;SDS011;1717;50.240;8.406;2024-03-29T08:07:08;1.00;;;0.77;;
3407;SDS011;1717;50.240;8.406;2024-03-29T08:09:36;1.90;;;1.00;;
3407;SDS011;1717;50.240;8.406;2024-03-29T08:12:04;1.77;;;1.37;;
3407;SDS011;1717;50.240;8.406;2024-03-29T08:14:31;2.37;;;0.93;;
3407;SDS011;1717;50.240;8.406;2024-03-29T08:16:58;3.57;;;1.50;;
3407;SDS011;1717;50.240;8.406;2024-03-29T08:19:29;2.20;;;1.10;;
3407;SDS011;1717;50.240;8.406;2024-03-29T08:21:57;1.33;;;1.07;;
3407;SDS011;1717;50.240;8.406;2024-03-29T08:24:26;10.73;;;1.40;;
3407;SDS011;1717;50.240;8.406;2024-03-29T08:26:52;2.30;;;0.80;;
3407;SDS011;1717;50.240;8.406;2024-03-29T08:29:19;1.60;;;0.90;;
3407;SDS011;1717;50.240;8.406;2024-03-29T08:31:46;1.10;;;0.83;;
3407;SDS011;1717;50.240;8.406;2024-03-29T08:34:13;1.90;;;1.00;;
3407;SDS011;1717;50.240;8.406;2024-03-29T08:36:40;2.97;;;1.13;;
3407;SDS011;1717;50.240;8.406;2024-03-29T08:39:09;2.37;;;1.43;;
3407;SDS011;1717;50.240;8.406;2024-03-29T08:41:36;2.53;;;1.20;;
3407;SDS011;1717;50.240;8.406;2024-03-29T08:44:03;2.20;;;1.30;;
3407;SDS011;1717;50.240;8.406;2024-03-29T08:46:31;1.30;;;0.90;;
3407;SDS011;1717;50.240;8.406;2024-03-29T08:48:58;1.03;;;0.90;;
3407;SDS011;1717;50.240;8.406;2024-03-29T08:51:27;1.83;;;1.53;;
3407;SDS011;1717;50.240;8.406;2024-03-29T08:53:54;4.63;;;1.20;;
3407;SDS011;1717;50.240;8.406;2024-03-29T08:56:24;2.40;;;1.20;;
3407;SDS011;1717;50.240;8.406;2024-03-29T08:58:52;2.83;;;1.50;;
3407;SDS011;1717;50.240;8.406;2024-03-29T09:01:19;1.20;;;1.10;;
3407;SDS011;1717;50.240;8.406;2024-03-29T09:03:46;1.90;;;0.97;;
3407;SDS011;1717;50.240;8.406;2024-03-29T09:06:13;1.40;;;0.80;;
3407;SDS011;1717;50.240;8.406;2024-03-29T09:08:41;1.87;;;0.80;;
3407;SDS011;1717;50.240;8.406;2024-03-29T09:11:07;5.00;;;1.13;;
3407;SDS011;1717;50.240;8.406;2024-03-29T09:13:39;1.43;;;1.10;;
3407;SDS011;1717;50.240;8.406;2024-03-29T09:16:06;1.73;;;1.20;;
3407;SDS011;1717;50.240;8.406;2024-03-29T09:18:33;2.73;;;1.87;;
3407;SDS011;1717;50.240;8.406;2024-03-29T09:21:00;4.80;;;1.50;;
3407;SDS011;1717;50.240;8.406;2024-03-29T09:23:27;3.27;;;1.33;;
3407;SDS011;1717;50.240;8.406;2024-03-29T09:25:54;1.10;;;0.90;;
3407;SDS011;1717;50.240;8.406;2024-03-29T09:28:21;2.97;;;0.77;;
3407;SDS011;1717;50.240;8.406;2024-03-29T09:30:50;0.87;;;0.87;;
3407;SDS011;1717;50.240;8.406;2024-03-29T09:33:17;0.93;;;0.83;;
3407;SDS011;1717;50.240;8.406;2024-03-29T09:35:44;1.87;;;1.17;;
3407;SDS011;1717;50.240;8.406;2024-03-29T09:38:09;2.97;;;1.17;;
3407;SDS011;1717;50.240;8.406;2024-03-29T09:40:36;1.47;;;0.90;;
3407;SDS011;1717;50.240;8.406;2024-03-29T09:43:03;2.37;;;0.93;;
3407;SDS011;1717;50.240;8.406;2024-03-29T09:45:31;0.80;;;0.57;;
3407;SDS011;1717;50.240;8.406;2024-03-29T09:48:03;2.10;;;0.80;;
3407;SDS011;1717;50.240;8.406;2024-03-29T09:50:31;2.20;;;0.90;;
3407;SDS011;1717;50.240;8.406;2024-03-29T09:53:00;2.73;;;0.93;;
3407;SDS011;1717;50.240;8.406;2024-03-29T09:55:27;2.20;;;1.33;;
3407;SDS011;1717;50.240;8.406;2024-03-29T09:57:55;2.47;;;1.00;;
3407;SDS011;1717;50.240;8.406;2024-03-29T10:00:22;1.30;;;0.93;;
3407;SDS011;1717;50.240;8.406;2024-03-29T10:02:49;1.50;;;1.10;;
3407;SDS011;1717;50.240;8.406;2024-03-29T10:05:20;2.50;;;1.50;;
3407;SDS011;1717;50.240;8.406;2024-03-29T10:07:48;2.83;;;1.60;;
3407;SDS011;1717;50.240;8.406;2024-03-29T10:10:16;1.40;;;0.90;;
3407;SDS011;1717;50.240;8.406;2024-03-29T10:12:43;2.43;;;1.50;;
3407;SDS011;1717;50.240;8.406;2024-03-29T10:15:10;1.57;;;1.20;;
3407;SDS011;1717;50.240;8.406;2024-03-29T10:17:39;1.30;;;1.00;;
3407;SDS011;1717;50.240;8.406;2024-03-29T10:20:11;3.40;;;1.57;;
3407;SDS011;1717;50.240;8.406;2024-03-29T10:22:41;1.47;;;1.30;;
3407;SDS011;1717;50.240;8.406;2024-03-29T10:25:09;1.20;;;1.10;;
3407;SDS011;1717;50.240;8.406;2024-03-29T10:27:36;1.73;;;1.07;;
3407;SDS011;1717;50.240;8.406;2024-03-29T10:30:05;1.90;;;1.23;;
3407;SDS011;1717;50.240;8.406;2024-03-29T10:32:33;1.47;;;1.17;;
3407;SDS011;1717;50.240;8.406;2024-03-29T10:35:00;3.40;;;1.40;;
3407;SDS011;1717;50.240;8.406;2024-03-29T10:37:27;1.93;;;1.63;;
3407;SDS011;1717;50.240;8.406;2024-03-29T10:39:59;2.03;;;1.50;;
3407;SDS011;1717;50.240;8.406;2024-03-29T10:42:27;2.10;;;1.93;;
3407;SDS011;1717;50.240;8.406;2024-03-29T10:44:55;4.80;;;1.53;;
3407;SDS011;1717;50.240;8.406;2024-03-29T10:47:23;1.80;;;1.40;;
3407;SDS011;1717;50.240;8.406;2024-03-29T10:49:51;2.73;;;2.03;;
3407;SDS011;1717;50.240;8.406;2024-03-29T10:52:20;2.43;;;1.80;;
3407;SDS011;1717;50.240;8.406;2024-03-29T10:54:47;1.83;;;1.60;;
3407;SDS011;1717;50.240;8.406;2024-03-29T10:57:19;2.60;;;1.70;;
3407;SDS011;1717;50.240;8.406;2024-03-29T10:59:50;2.50;;;1.57;;
3407;SDS011;1717;50.240;8.406;2024-03-29T11:02:31;3.40;;;2.20;;
3407;SDS011;1717;50.240;8.406;2024-03-29T11:05:02;1.87;;;1.70;;
3407;SDS011;1717;50.240;8.406;2024-03-29T11:07:37;2.80;;;2.20;;
3407;SDS011;1717;50.240;8.406;2024-03-29T11:10:08;2.07;;;1.70;;
3407;SDS011;1717;50.240;8.406;2024-03-29T11:12:41;1.83;;;1.73;;
3407;SDS011;1717;50.240;8.406;2024-03-29T11:15:22;2.40;;;2.20;;
3407;SDS011;1717;50.240;8.406;2024-03-29T11:17:57;3.03;;;2.67;;
3407;SDS011;1717;50.240;8.406;2024-03-29T11:20:24;3.10;;;2.60;;
3407;SDS011;1717;50.240;8.406;2024-03-29T11:23:00;3.13;;;1.93;;
3407;SDS011;1717;50.240;8.406;2024-03-29T11:25:37;2.63;;;2.43;;
3407;SDS011;1717;50.240;8.406;2024-03-29T11:28:10;3.50;;;2.87;;
3407;SDS011;1717;50.240;8.406;2024-03-29T11:30:42;3.00;;;2.73;;
3407;SDS011;1717;50.240;8.406;2024-03-29T11:33:27;3.50;;;3.13;;
3407;SDS011;1717;50.240;8.406;2024-03-29T11:35:58;4.03;;;3.20;;
3407;SDS011;1717;50.240;8.406;2024-03-29T11:38:30;2.60;;;2.40;;
3407;SDS011;1717;50.240;8.406;2024-03-29T11:41:01;3.37;;;2.93;;
3407;SDS011;1717;50.240;8.406;2024-03-29T11:43:30;4.30;;;3.90;;
3407;SDS011;1717;50.240;8.406;2024-03-29T11:45:58;3.20;;;2.73;;
3407;SDS011;1717;50.240;8.406;2024-03-29T11:48:27;4.23;;;3.20;;
3407;SDS011;1717;50.240;8.406;2024-03-29T11:50:54;3.40;;;3.10;;
3407;SDS011;1717;50.240;8.406;2024-03-29T11:53:21;5.10;;;3.43;;
3407;SDS011;1717;50.240;8.406;2024-03-29T11:55:48;6.23;;;3.87;;
3407;SDS011;1717;50.240;8.406;2024-03-29T11:58:18;3.50;;;3.20;;
3407;SDS011;1717;50.240;8.406;2024-03-29T12:00:47;3.60;;;3.10;;
3407;SDS011;1717;50.240;8.406;2024-03-29T12:03:15;5.63;;;2.90;;
3407;SDS011;1717;50.240;8.406;2024-03-29T12:05:43;3.50;;;3.03;;
3407;SDS011;1717;50.240;8.406;2024-03-29T12:08:10;4.30;;;3.70;;
3407;SDS011;1717;50.240;8.406;2024-03-29T12:10:37;3.30;;;3.00;;
3407;SDS011;1717;50.240;8.406;2024-03-29T12:13:04;4.30;;;3.90;;
3407;SDS011;1717;50.240;8.406;2024-03-29T12:15:32;3.10;;;2.80;;
3407;SDS011;1717;50.240;8.406;2024-03-29T12:18:01;3.00;;;2.73;;
3407;SDS011;1717;50.240;8.406;2024-03-29T12:20:30;3.20;;;2.93;;
3407;SDS011;1717;50.240;8.406;2024-03-29T12:22:58;3.07;;;2.77;;
3407;SDS011;1717;50.240;8.406;2024-03-29T12:25:27;2.60;;;2.40;;
3407;SDS011;1717;50.240;8.406;2024-03-29T12:27:54;2.67;;;2.47;;
3407;SDS011;1717;50.240;8.406;2024-03-29T12:30:21;3.20;;;2.53;;
3407;SDS011;1717;50.240;8.406;2024-03-29T12:32:48;2.80;;;2.60;;
3407;SDS011;1717;50.240;8.406;2024-03-29T12:35:27;2.53;;;2.33;;
3407;SDS011;1717;50.240;8.406;2024-03-29T12:37:54;2.90;;;2.70;;
3407;SDS011;1717;50.240;8.406;2024-03-29T12:40:21;3.80;;;3.40;;
3407;SDS011;1717;50.240;8.406;2024-03-29T12:42:50;2.83;;;2.63;;
3407;SDS011;1717;50.240;8.406;2024-03-29T12:45:17;2.67;;;2.50;;
3407;SDS011;1717;50.240;8.406;2024-03-29T12:47:45;3.90;;;3.60;;
3407;SDS011;1717;50.240;8.406;2024-03-29T12:50:12;2.97;;;2.73;;
3407;SDS011;1717;50.240;8.406;2024-03-29T12:52:46;3.60;;;2.60;;
3407;SDS011;1717;50.240;8.406;2024-03-29T12:55:13;2.67;;;2.47;;
3407;SDS011;1717;50.240;8.406;2024-03-29T12:57:43;3.23;;;2.80;;
3407;SDS011;1717;50.240;8.406;2024-03-29T13:00:10;3.00;;;2.80;;
3407;SDS011;1717;50.240;8.406;2024-03-29T13:02:37;3.37;;;3.10;;
3407;SDS011;1717;50.240;8.406;2024-03-29T13:05:04;2.60;;;2.40;;
3407;SDS011;1717;50.240;8.406;2024-03-29T13:07:32;4.87;;;3.40;;
3407;SDS011;1717;50.240;8.406;2024-03-29T13:10:00;3.87;;;3.33;;
3407;SDS011;1717;50.240;8.406;2024-03-29T13:12:28;3.67;;;3.37;;
3407;SDS011;1717;50.240;8.406;2024-03-29T13:14:55;3.50;;;3.20;;
3407;SDS011;1717;50.240;8.406;2024-03-29T13:17:22;3.07;;;2.87;;
3407;SDS011;1717;50.240;8.406;2024-03-29T13:19:49;3.53;;;3.23;;
3407;SDS011;1717;50.240;8.406;2024-03-29T13:22:16;6.13;;;3.03;;
3407;SDS011;1717;50.240;8.406;2024-03-29T13:24:43;6.37;;;3.50;;
3407;SDS011;1717;50.240;8.406;2024-03-29T13:27:12;3.83;;;3.23;;
3407;SDS011;1717;50.240;8.406;2024-03-29T13:29:39;4.53;;;3.70;;
3407;SDS011;1717;50.240;8.406;2024-03-29T13:32:06;3.20;;;3.00;;
3407;SDS011;1717;50.240;8.406;2024-03-29T13:34:33;3.30;;;3.10;;
3407;SDS011;1717;50.240;8.406;2024-03-29T13:37:00;4.10;;;3.80;;
3407;SDS011;1717;50.240;8.406;2024-03-29T13:39:26;3.27;;;2.97;;
3407;SDS011;1717;50.240;8.406;2024-03-29T13:41:53;4.37;;;3.20;;
3407;SDS011;1717;50.240;8.406;2024-03-29T13:44:22;3.50;;;3.20;;
3407;SDS011;1717;50.240;8.406;2024-03-29T13:46:48;3.60;;;3.30;;
3407;SDS011;1717;50.240;8.406;2024-03-29T13:49:16;3.30;;;2.83;;
3407;SDS011;1717;50.240;8.406;2024-03-29T13:51:45;3.40;;;3.20;;
3407;SDS011;1717;50.240;8.406;2024-03-29T13:54:12;2.80;;;2.60;;
3407;SDS011;1717;50.240;8.406;2024-03-29T13:56:39;6.30;;;2.90;;
3407;SDS011;1717;50.240;8.406;2024-03-29T13:59:06;3.03;;;2.70;;
3407;SDS011;1717;50.240;8.406;2024-03-29T14:01:34;3.30;;;3.00;;
3407;SDS011;1717;50.240;8.406;2024-03-29T14:04:03;4.03;;;3.33;;
3407;SDS011;1717;50.240;8.406;2024-03-29T14:06:29;3.53;;;2.67;;
3407;SDS011;1717;50.240;8.406;2024-03-29T14:08:56;3.60;;;3.30;;
3407;SDS011;1717;50.240;8.406;2024-03-29T14:11:23;3.80;;;3.50;;
3407;SDS011;1717;50.240;8.406;2024-03-29T14:13:50;3.40;;;3.10;;
3407;SDS011;1717;50.240;8.406;2024-03-29T14:16:21;3.53;;;3.23;;
3407;SDS011;1717;50.240;8.406;2024-03-29T14:18:49;3.70;;;3.40;;
3407;SDS011;1717;50.240;8.406;2024-03-29T14:21:16;4.47;;;3.90;;
3407;SDS011;1717;50.240;8.406;2024-03-29T14:23:43;3.47;;;3.17;;
3407;SDS011;1717;50.240;8.406;2024-03-29T14:26:10;4.20;;;3.80;;
3407;SDS011;1717;50.240;8.406;2024-03-29T14:28:36;3.80;;;3.50;;
3407;SDS011;1717;50.240;8.406;2024-03-29T14:31:03;3.93;;;3.60;;
3407;SDS011;1717;50.240;8.406;2024-03-29T14:33:44;4.00;;;3.63;;
3407;SDS011;1717;50.240;8.406;2024-03-29T14:36:13;3.63;;;3.33;;
3407;SDS011;1717;50.240;8.406;2024-03-29T14:38:40;4.23;;;3.83;;
3407;SDS011;1717;50.240;8.406;2024-03-29T14:41:07;5.37;;;4.50;;
3407;SDS011;1717;50.240;8.406;2024-03-29T14:43:34;4.57;;;4.20;;
3407;SDS011;1717;50.240;8.406;2024-03-29T14:46:02;4.27;;;3.93;;
3407;SDS011;1717;50.240;8.406;2024-03-29T14:48:29;5.23;;;3.53;;
3407;SDS011;1717;50.240;8.406;2024-03-29T14:50:56;4.23;;;3.90;;
3407;SDS011;1717;50.240;8.406;2024-03-29T14:53:25;7.03;;;4.70;;
3407;SDS011;1717;50.240;8.406;2024-03-29T14:55:52;4.53;;;3.97;;
3407;SDS011;1717;50.240;8.406;2024-03-29T14:58:19;4.93;;;4.53;;
3407;SDS011;1717;50.240;8.406;2024-03-29T15:00:45;4.47;;;3.93;;
3407;SDS011;1717;50.240;8.406;2024-03-29T15:03:13;4.23;;;3.83;;
3407;SDS011;1717;50.240;8.406;2024-03-29T15:05:40;5.27;;;4.70;;
3407;SDS011;1717;50.240;8.406;2024-03-29T15:08:07;4.83;;;4.43;;
3407;SDS011;1717;50.240;8.406;2024-03-29T15:10:42;5.93;;;4.10;;
3407;SDS011;1717;50.240;8.406;2024-03-29T15:13:08;4.20;;;3.90;;
3407;SDS011;1717;50.240;8.406;2024-03-29T15:15:35;4.30;;;4.00;;
3407;SDS011;1717;50.240;8.406;2024-03-29T15:18:03;4.90;;;4.50;;